createdAt,value
2019-01-30T00:01:02.948Z,7.13
2019-01-30T00:03:31.358Z,5.13
2019-01-30T00:05:59.811Z,4.07
2019-01-30T00:08:28.248Z,8.07
2019-01-30T00:10:56.690Z,3.77
2019-01-30T00:13:25.145Z,6.03
2019-01-30T00:15:56.415Z,3.17
2019-01-30T00:18:23.716Z,6.13
2019-01-30T00:20:52.157Z,5.40
2019-01-30T00:23:20.988Z,7.00
2019-01-30T00:25:49.422Z,7.90
2019-01-30T00:28:17.827Z,4.27
2019-01-30T00:30:46.243Z,7.37
2019-01-30T00:33:14.669Z,8.00
2019-01-30T00:35:43.075Z,5.23
2019-01-30T00:38:11.499Z,8.67
2019-01-30T00:40:39.923Z,5.60
2019-01-30T00:43:08.685Z,4.23
2019-01-30T00:45:37.167Z,6.10
2019-01-30T00:48:05.722Z,5.57
2019-01-30T00:50:34.140Z,7.90
2019-01-30T00:53:02.563Z,6.27
2019-01-30T00:55:30.979Z,4.67
2019-01-30T00:57:59.403Z,3.43
2019-01-30T01:00:29.928Z,7.10
2019-01-30T01:02:58.352Z,4.63
2019-01-30T01:05:26.878Z,7.20
2019-01-30T01:07:55.362Z,5.23
2019-01-30T01:10:23.928Z,6.47
2019-01-30T01:12:52.333Z,6.10
2019-01-30T01:15:20.748Z,6.47
2019-01-30T01:17:49.171Z,5.00
2019-01-30T01:20:19.262Z,5.23
2019-01-30T01:22:49.222Z,7.17
2019-01-30T01:25:18.571Z,4.30
2019-01-30T01:27:47.225Z,7.47
2019-01-30T01:30:25.317Z,4.67
2019-01-30T01:32:51.334Z,4.50
2019-01-30T01:35:19.758Z,4.50
2019-01-30T01:37:48.177Z,6.03
2019-01-30T01:40:17.045Z,5.67
2019-01-30T01:42:45.708Z,6.33
2019-01-30T01:45:16.317Z,5.40
2019-01-30T01:47:44.908Z,5.83
2019-01-30T01:50:15.364Z,5.03
2019-01-30T01:52:44.026Z,5.53
2019-01-30T01:55:13.132Z,4.30
2019-01-30T01:57:41.799Z,5.53
2019-01-30T02:00:15.932Z,6.43
2019-01-30T02:02:51.680Z,7.33
2019-01-30T02:05:21.977Z,5.73
2019-01-30T02:07:52.035Z,7.00
2019-01-30T02:10:23.043Z,4.60
2019-01-30T02:12:51.702Z,4.87
2019-01-30T02:15:22.138Z,7.47
2019-01-30T02:17:51.291Z,7.43
2019-01-30T02:20:33.864Z,7.80
2019-01-30T02:23:02.369Z,5.30
2019-01-30T02:25:30.790Z,4.53
2019-01-30T02:27:59.303Z,3.10
2019-01-30T02:30:29.942Z,4.97
2019-01-30T02:32:58.361Z,5.07
2019-01-30T02:35:27.019Z,4.10
2019-01-30T02:37:55.487Z,4.33
2019-01-30T02:40:25.716Z,6.10
2019-01-30T02:42:54.166Z,7.70
2019-01-30T02:45:26.792Z,4.33
2019-01-30T02:47:55.295Z,5.27
2019-01-30T02:50:23.869Z,6.23
2019-01-30T02:52:52.410Z,5.17
2019-01-30T02:55:22.516Z,6.00
2019-01-30T02:57:50.982Z,6.07
2019-01-30T03:00:30.626Z,6.80
2019-01-30T03:02:59.277Z,4.63
2019-01-30T03:05:27.964Z,5.13
2019-01-30T03:07:56.475Z,5.07
2019-01-30T03:10:24.981Z,7.13
2019-01-30T03:12:53.425Z,4.40
2019-01-30T03:15:22.186Z,7.90
2019-01-30T03:17:50.684Z,4.23
2019-01-30T03:20:23.951Z,5.20
2019-01-30T03:22:52.478Z,5.53
2019-01-30T03:25:22.523Z,5.77
2019-01-30T03:27:50.978Z,5.67
2019-01-30T03:30:21.650Z,8.73
2019-01-30T03:32:50.086Z,6.50
2019-01-30T03:35:18.650Z,10.20
2019-01-30T03:37:47.090Z,5.27
2019-01-30T03:40:20.655Z,4.40
2019-01-30T03:42:49.127Z,5.47
2019-01-30T03:45:22.426Z,4.30
2019-01-30T03:47:50.933Z,6.70
2019-01-30T03:50:19.433Z,9.53
2019-01-30T03:52:47.841Z,8.40
2019-01-30T03:55:19.830Z,8.30
2019-01-30T03:57:48.391Z,6.23
2019-01-30T04:00:19.475Z,9.33
2019-01-30T04:02:48.031Z,5.57
2019-01-30T04:05:16.434Z,8.93
2019-01-30T04:07:45.101Z,7.90
2019-01-30T04:10:16.301Z,7.97
2019-01-30T04:12:44.745Z,7.00
2019-01-30T04:15:13.502Z,8.10
2019-01-30T04:17:41.936Z,9.17
2019-01-30T04:20:13.208Z,10.93
2019-01-30T04:22:41.643Z,8.00
2019-01-30T04:25:10.517Z,10.77
2019-01-30T04:27:39.016Z,6.93
2019-01-30T04:30:21.277Z,7.97
2019-01-30T04:32:49.742Z,10.87
2019-01-30T04:35:18.325Z,9.67
2019-01-30T04:37:46.871Z,9.50
2019-01-30T04:40:20.037Z,7.27
2019-01-30T04:42:48.779Z,7.10
2019-01-30T04:45:22.663Z,10.23
2019-01-30T04:47:51.213Z,11.70
2019-01-30T04:50:19.824Z,13.13
2019-01-30T04:52:48.344Z,12.67
2019-01-30T04:55:17.125Z,9.23
2019-01-30T04:57:45.788Z,6.70
2019-01-30T05:00:17.441Z,8.70
2019-01-30T05:02:48.549Z,7.87
2019-01-30T05:05:28.020Z,9.30
2019-01-30T05:08:00.110Z,8.70
2019-01-30T05:10:30.230Z,11.13
2019-01-30T05:13:03.439Z,11.10
2019-01-30T05:15:31.988Z,11.20
2019-01-30T05:18:00.430Z,14.70
2019-01-30T05:20:28.886Z,9.03
2019-01-30T05:22:57.754Z,10.90
2019-01-30T05:25:26.254Z,11.90
2019-01-30T05:27:54.750Z,10.23
2019-01-30T05:30:31.539Z,11.00
2019-01-30T05:33:00.063Z,10.57
2019-01-30T05:35:31.314Z,9.60
2019-01-30T05:38:00.158Z,11.80
2019-01-30T05:40:28.716Z,12.60
2019-01-30T05:42:57.289Z,8.23
2019-01-30T05:45:34.569Z,9.30
2019-01-30T05:48:03.073Z,10.13
2019-01-30T05:50:31.492Z,12.27
2019-01-30T05:53:03.535Z,9.30
2019-01-30T05:58:08.293Z,8.77
2019-01-30T06:00:41.134Z,8.67
2019-01-30T06:03:11.614Z,7.73
2019-01-30T06:05:40.349Z,10.70
2019-01-30T06:08:10.444Z,8.13
2019-01-30T06:10:39.213Z,9.88
2019-01-30T06:13:08.900Z,8.83
2019-01-30T06:15:37.384Z,8.70
2019-01-30T06:18:06.262Z,8.27
2019-01-30T06:20:34.693Z,7.60
2019-01-30T06:23:03.153Z,7.07
2019-01-30T06:25:31.636Z,9.33
2019-01-30T06:28:00.071Z,8.30
2019-01-30T06:30:28.640Z,7.83
2019-01-30T06:32:57.431Z,6.70
2019-01-30T06:35:25.873Z,8.40
2019-01-30T06:37:54.376Z,10.53
2019-01-30T06:40:25.028Z,7.50
2019-01-30T06:42:53.543Z,7.63
2019-01-30T06:45:22.125Z,7.40
2019-01-30T06:47:50.653Z,7.47
2019-01-30T06:50:19.573Z,7.07
2019-01-30T06:52:47.979Z,6.57
2019-01-30T06:55:16.413Z,8.60
2019-01-30T06:57:45.008Z,6.67
2019-01-30T07:00:19.245Z,5.57
2019-01-30T07:02:47.800Z,6.73
2019-01-30T07:05:16.246Z,4.97
2019-01-30T07:07:44.656Z,5.37
2019-01-30T07:10:15.988Z,6.67
2019-01-30T07:12:44.387Z,8.03
2019-01-30T07:15:13.119Z,7.10
2019-01-30T07:17:41.576Z,9.03
2019-01-30T07:20:15.488Z,6.57
2019-01-30T07:22:44.281Z,7.77
2019-01-30T07:25:15.372Z,9.23
2019-01-30T07:27:43.790Z,4.87
2019-01-30T07:30:30.252Z,9.40
2019-01-30T07:32:58.741Z,7.17
2019-01-30T07:35:29.164Z,8.63
2019-01-30T07:37:58.735Z,5.97
2019-01-30T07:40:39.886Z,6.03
2019-01-30T07:43:11.443Z,6.73
2019-01-30T07:45:42.908Z,6.33
2019-01-30T07:48:11.337Z,4.00
2019-01-30T07:53:44.969Z,6.33
2019-01-30T07:56:19.217Z,5.73
2019-01-30T07:58:57.901Z,6.33
2019-01-30T08:01:27.148Z,5.93
2019-01-30T08:03:55.566Z,6.40
2019-01-30T08:06:23.996Z,6.47
2019-01-30T08:08:52.425Z,5.63
2019-01-30T08:11:20.939Z,7.80
2019-01-30T08:13:49.420Z,8.33
2019-01-30T08:16:17.871Z,7.07
2019-01-30T08:18:47.189Z,8.37
2019-01-30T08:21:15.779Z,7.87
2019-01-30T08:23:44.197Z,8.33
2019-01-30T08:26:12.855Z,8.33
2019-01-30T08:28:43.359Z,9.80
2019-01-30T08:31:12.280Z,9.17
2019-01-30T08:33:40.876Z,8.10
2019-01-30T08:36:09.352Z,8.50
2019-01-30T08:38:54.481Z,8.37
2019-01-30T08:41:39.946Z,8.27
2019-01-30T08:44:18.921Z,6.57
2019-01-30T08:46:47.912Z,10.07
2019-01-30T08:49:16.339Z,5.67
2019-01-30T08:51:44.941Z,9.37
2019-01-30T08:54:13.472Z,9.57
2019-01-30T08:56:52.504Z,11.00
2019-01-30T08:59:12.114Z,9.23
2019-01-30T09:01:40.895Z,5.27
2019-01-30T09:04:11.304Z,8.97
2019-01-30T09:06:39.470Z,7.33
2019-01-30T09:09:08.957Z,7.13
2019-01-30T09:11:37.683Z,7.63
2019-01-30T09:14:06.140Z,6.33
2019-01-30T09:16:34.603Z,8.30
2019-01-30T09:19:03.046Z,7.07
2019-01-30T09:21:31.799Z,7.27
2019-01-30T09:24:00.263Z,7.30
2019-01-30T09:26:28.675Z,5.37
2019-01-30T09:28:57.137Z,6.57
2019-01-30T09:31:25.567Z,5.53
2019-01-30T09:33:54.013Z,6.27
2019-01-30T09:36:22.523Z,4.00
2019-01-30T09:38:51.042Z,3.60
2019-01-30T09:41:19.503Z,4.33
2019-01-30T09:43:47.991Z,6.83
2019-01-30T09:46:16.491Z,3.27
2019-01-30T09:48:44.972Z,7.17
2019-01-30T09:51:13.426Z,25.50
2019-01-30T09:53:41.972Z,17.13
2019-01-30T09:56:10.495Z,3.00
2019-01-30T09:58:38.972Z,2.80
2019-01-30T10:01:10.376Z,2.40
2019-01-30T10:03:38.910Z,1.70
2019-01-30T10:06:07.551Z,2.13
2019-01-30T10:08:36.000Z,1.77
2019-01-30T10:11:04.551Z,2.10
2019-01-30T10:13:32.986Z,2.37
2019-01-30T10:16:01.483Z,1.83
2019-01-30T10:18:30.007Z,2.33
2019-01-30T10:20:59.288Z,2.17
2019-01-30T10:23:27.722Z,3.33
2019-01-30T10:25:56.321Z,2.10
2019-01-30T10:28:24.767Z,5.53
2019-01-30T10:30:53.207Z,3.10
2019-01-30T10:33:22.531Z,1.67
2019-01-30T10:35:50.954Z,1.80
2019-01-30T10:38:19.450Z,2.20
2019-01-30T10:40:47.997Z,1.67
2019-01-30T10:43:16.559Z,2.70
2019-01-30T10:45:44.994Z,2.00
2019-01-30T10:48:13.434Z,2.07
2019-01-30T10:50:41.900Z,1.80
2019-01-30T10:53:10.320Z,1.70
2019-01-30T10:55:38.914Z,2.93
2019-01-30T10:58:09.769Z,3.30
2019-01-30T11:00:49.101Z,2.00
2019-01-30T11:03:17.817Z,2.70
2019-01-30T11:05:46.324Z,2.37
2019-01-30T11:08:14.762Z,2.73
2019-01-30T11:10:43.390Z,3.37
2019-01-30T11:13:11.955Z,3.03
2019-01-30T11:15:40.466Z,2.30
2019-01-30T11:18:10.926Z,3.50
2019-01-30T11:20:39.458Z,2.50
2019-01-30T11:23:08.027Z,3.47
2019-01-30T11:25:39.295Z,2.60
2019-01-30T11:28:08.445Z,3.50
2019-01-30T11:30:36.936Z,3.40
2019-01-30T11:33:05.485Z,3.83
2019-01-30T11:35:34.116Z,4.10
2019-01-30T11:38:02.520Z,6.10
2019-01-30T11:40:31.056Z,4.73
2019-01-30T11:42:59.580Z,4.47
2019-01-30T11:45:33.467Z,4.70
2019-01-30T11:48:02.252Z,4.70
2019-01-30T11:50:30.831Z,4.53
2019-01-30T11:52:59.492Z,6.50
2019-01-30T11:55:28.032Z,5.20
2019-01-30T11:57:56.474Z,5.40
2019-01-30T12:00:29.472Z,6.20
2019-01-30T12:02:57.899Z,5.47
2019-01-30T12:05:26.392Z,6.33
2019-01-30T12:07:54.815Z,6.87
2019-01-30T12:10:23.415Z,4.97
2019-01-30T12:12:51.833Z,6.33
2019-01-30T12:15:24.813Z,6.00
2019-01-30T12:17:53.323Z,4.27
2019-01-30T12:20:21.755Z,4.83
2019-01-30T12:22:50.189Z,6.43
2019-01-30T12:25:20.995Z,5.60
2019-01-30T12:27:51.021Z,4.37
2019-01-30T12:30:30.383Z,5.23
2019-01-30T12:32:58.904Z,6.07
2019-01-30T12:35:27.384Z,3.60
2019-01-30T12:37:55.872Z,5.80
2019-01-30T12:40:25.155Z,3.90
2019-01-30T12:42:53.808Z,4.40
2019-01-30T12:45:38.501Z,4.77
2019-01-30T12:48:07.297Z,3.07
2019-01-30T12:50:35.777Z,7.80
2019-01-30T12:53:04.446Z,8.10
2019-01-30T12:55:32.864Z,4.13
2019-01-30T12:58:01.316Z,3.97
2019-01-30T13:00:35.391Z,3.90
2019-01-30T13:03:04.158Z,4.23
2019-01-30T13:05:32.811Z,4.47
2019-01-30T13:08:01.230Z,3.23
2019-01-30T13:10:29.723Z,3.37
2019-01-30T13:12:58.131Z,4.00
2019-01-30T13:15:28.584Z,3.70
2019-01-30T13:17:57.134Z,3.97
2019-01-30T13:20:25.575Z,3.43
2019-01-30T13:22:54.152Z,2.80
2019-01-30T13:25:24.908Z,3.13
2019-01-30T13:27:53.397Z,3.30
2019-01-30T13:30:27.429Z,2.07
2019-01-30T13:32:55.836Z,2.20
2019-01-30T13:35:24.353Z,3.70
2019-01-30T13:37:53.656Z,4.40
2019-01-30T13:40:29.497Z,4.10
2019-01-30T13:42:58.050Z,3.97
2019-01-30T13:45:27.222Z,4.73
2019-01-30T13:47:55.806Z,7.53
2019-01-30T13:50:26.424Z,4.13
2019-01-30T13:52:55.071Z,4.23
2019-01-30T13:55:23.652Z,3.93
2019-01-30T13:57:52.203Z,5.67
2019-01-30T14:00:22.888Z,4.13
2019-01-30T14:02:51.429Z,5.53
2019-01-30T14:05:19.857Z,5.20
2019-01-30T14:07:48.625Z,6.53
2019-01-30T14:10:17.175Z,5.33
2019-01-30T14:12:45.602Z,5.37
2019-01-30T14:15:16.660Z,6.97
2019-01-30T14:17:45.160Z,3.10
2019-01-30T14:20:15.621Z,7.17
2019-01-30T14:22:44.106Z,5.93
2019-01-30T14:25:13.966Z,6.03
2019-01-30T14:27:42.440Z,6.83
2019-01-30T14:30:22.022Z,7.57
2019-01-30T14:32:50.471Z,6.30
2019-01-30T14:35:18.989Z,6.43
2019-01-30T14:37:47.516Z,7.07
2019-01-30T14:40:18.704Z,7.63
2019-01-30T14:42:47.241Z,6.87
2019-01-30T14:45:20.137Z,7.00
2019-01-30T14:47:52.270Z,6.57
2019-01-30T14:50:26.233Z,6.70
2019-01-30T14:52:54.920Z,6.47
2019-01-30T14:55:23.466Z,5.53
2019-01-30T14:57:53.156Z,7.07
2019-01-30T15:00:30.075Z,7.33
2019-01-30T15:02:58.607Z,6.97
2019-01-30T15:05:27.790Z,7.13
2019-01-30T15:07:56.403Z,5.87
2019-01-30T15:10:27.284Z,6.10
2019-01-30T15:12:55.787Z,8.87
2019-01-30T15:15:29.427Z,7.80
2019-01-30T15:17:58.005Z,6.27
2019-01-30T15:20:31.838Z,5.23
2019-01-30T15:23:00.427Z,6.00
2019-01-30T15:25:29.187Z,5.70
2019-01-30T15:27:57.971Z,6.13
2019-01-30T15:30:35.211Z,9.27
2019-01-30T15:33:03.898Z,6.93
2019-01-30T15:35:33.527Z,9.30
2019-01-30T15:38:04.285Z,9.87
2019-01-30T15:40:32.766Z,8.50
2019-01-30T15:43:01.200Z,9.10
2019-01-30T15:45:29.850Z,10.33
2019-01-30T15:47:58.296Z,8.77
2019-01-30T15:50:32.009Z,10.03
2019-01-30T15:53:00.781Z,8.70
2019-01-30T15:55:29.358Z,5.60
2019-01-30T15:58:03.428Z,10.17
2019-01-30T16:00:34.710Z,8.10
2019-01-30T16:03:03.135Z,8.17
2019-01-30T16:05:31.547Z,9.23
2019-01-30T16:07:59.991Z,7.97
2019-01-30T16:10:28.397Z,8.43
2019-01-30T16:12:56.871Z,10.73
2019-01-30T16:15:28.520Z,5.20
2019-01-30T16:17:56.963Z,7.70
2019-01-30T16:20:25.477Z,15.87
2019-01-30T16:22:54.057Z,10.93
2019-01-30T16:25:22.495Z,11.53
2019-01-30T16:27:50.950Z,8.27
2019-01-30T16:30:21.747Z,9.00
2019-01-30T16:32:50.152Z,16.40
2019-01-30T16:35:24.280Z,13.43
2019-01-30T16:37:52.756Z,16.23
2019-01-30T16:40:21.206Z,13.13
2019-01-30T16:42:49.638Z,16.33
2019-01-30T16:45:20.895Z,15.43
2019-01-30T16:47:49.299Z,9.70
2019-01-30T16:50:17.818Z,7.57
2019-01-30T16:52:46.604Z,11.70
2019-01-30T16:55:17.890Z,14.93
2019-01-30T16:57:46.296Z,16.57
2019-01-30T17:00:26.207Z,13.53
2019-01-30T17:02:55.072Z,10.97
2019-01-30T17:05:23.724Z,4.83
2019-01-30T17:07:52.268Z,8.77
2019-01-30T17:10:20.973Z,13.53
2019-01-30T17:12:49.472Z,8.57
2019-01-30T17:15:20.239Z,9.27
2019-01-30T17:17:48.672Z,11.20
2019-01-30T17:20:22.370Z,7.87
2019-01-30T17:22:51.060Z,6.47
2019-01-30T17:25:19.702Z,4.53
2019-01-30T17:27:48.252Z,9.57
2019-01-30T17:30:31.487Z,8.87
2019-01-30T17:33:00.092Z,10.87
2019-01-30T17:35:28.518Z,9.20
2019-01-30T17:37:56.943Z,5.60
2019-01-30T17:40:27.504Z,4.17
2019-01-30T17:42:55.986Z,7.67
2019-01-30T17:45:24.588Z,10.20
2019-01-30T17:47:53.388Z,7.40
2019-01-30T17:50:24.100Z,6.03
2019-01-30T17:52:52.592Z,6.67
2019-01-30T17:55:21.064Z,7.73
2019-01-30T17:57:49.587Z,5.33
2019-01-30T18:00:31.290Z,11.10
2019-01-30T18:02:59.951Z,6.33
2019-01-30T18:05:28.387Z,4.33
2019-01-30T18:07:56.831Z,5.63
2019-01-30T18:10:25.246Z,6.57
2019-01-30T18:12:54.531Z,13.20
2019-01-30T18:15:23.119Z,9.03
2019-01-30T18:17:54.308Z,9.73
2019-01-30T18:20:22.513Z,9.87
2019-01-30T18:22:50.992Z,10.63
2019-01-30T18:25:20.543Z,11.77
2019-01-30T18:27:49.247Z,7.57
2019-01-30T18:30:21.468Z,7.50
2019-01-30T18:32:49.894Z,14.70
2019-01-30T18:35:18.376Z,7.47
2019-01-30T18:37:47.058Z,10.57
2019-01-30T18:40:20.215Z,5.97
2019-01-30T18:42:48.644Z,6.73
2019-01-30T18:45:19.695Z,8.77
2019-01-30T18:47:48.198Z,10.50
2019-01-30T18:50:21.593Z,11.37
2019-01-30T18:52:50.100Z,7.97
2019-01-30T18:55:18.582Z,11.00
2019-01-30T18:57:47.259Z,11.17
2019-01-30T19:00:29.698Z,10.70
2019-01-30T19:02:59.701Z,14.50
2019-01-30T19:05:29.203Z,9.23
2019-01-30T19:07:57.656Z,8.27
2019-01-30T19:10:26.058Z,11.47
2019-01-30T19:12:54.489Z,9.10
2019-01-30T19:15:25.809Z,10.20
2019-01-30T19:17:54.286Z,10.30
2019-01-30T19:20:25.780Z,12.37
2019-01-30T19:22:54.199Z,12.27
2019-01-30T19:25:22.759Z,16.07
2019-01-30T19:27:51.270Z,13.67
2019-01-30T19:30:25.045Z,14.23
2019-01-30T19:32:53.549Z,13.60
2019-01-30T19:35:22.129Z,12.43
2019-01-30T19:37:50.558Z,11.90
2019-01-30T19:40:19.099Z,10.30
2019-01-30T19:42:47.526Z,16.63
2019-01-30T19:45:18.595Z,17.27
2019-01-30T19:47:47.198Z,14.33
2019-01-30T19:50:29.157Z,9.40
2019-01-30T19:52:57.739Z,11.73
2019-01-30T19:55:26.232Z,7.17
2019-01-30T19:57:55.582Z,6.77
2019-01-30T20:00:29.620Z,18.80
2019-01-30T20:02:58.396Z,12.33
2019-01-30T20:05:26.912Z,9.27
2019-01-30T20:07:55.329Z,10.07
2019-01-30T20:10:32.064Z,8.93
2019-01-30T20:13:00.582Z,8.73
2019-01-30T20:15:29.785Z,11.40
2019-01-30T20:17:58.220Z,10.43
2019-01-30T20:20:26.803Z,11.33
2019-01-30T20:22:55.314Z,10.87
2019-01-30T20:25:26.565Z,8.53
2019-01-30T20:27:54.980Z,10.07
2019-01-30T20:30:24.661Z,10.20
2019-01-30T20:32:53.396Z,10.70
2019-01-30T20:35:21.983Z,11.30
2019-01-30T20:37:50.409Z,10.83
2019-01-30T20:40:20.867Z,9.87
2019-01-30T20:42:49.299Z,12.03
2019-01-30T20:45:17.739Z,9.17
2019-01-30T20:47:46.300Z,7.30
2019-01-30T20:50:17.092Z,10.77
2019-01-30T20:52:45.515Z,9.03
2019-01-30T20:55:16.043Z,7.27
2019-01-30T20:57:44.604Z,10.57
2019-01-30T21:00:18.497Z,8.20
2019-01-30T21:02:46.921Z,9.37
2019-01-30T21:05:15.316Z,6.43
2019-01-30T21:07:43.771Z,10.07
2019-01-30T21:10:15.283Z,6.20
2019-01-30T21:12:43.702Z,4.23
2019-01-30T21:15:14.670Z,7.47
2019-01-30T21:17:43.192Z,7.80
2019-01-30T21:20:18.496Z,4.67
2019-01-30T21:22:46.933Z,6.63
2019-01-30T21:25:17.684Z,19.97
2019-01-30T21:27:46.270Z,6.90
2019-01-30T21:30:22.870Z,3.83
2019-01-30T21:32:51.379Z,5.10
2019-01-30T21:35:19.846Z,8.77
2019-01-30T21:37:49.274Z,5.13
2019-01-30T21:40:19.709Z,5.97
2019-01-30T21:42:49.506Z,5.50
2019-01-30T21:45:22.836Z,7.77
2019-01-30T21:47:51.261Z,2.67
2019-01-30T21:50:19.932Z,6.97
2019-01-30T21:52:48.366Z,8.23
2019-01-30T21:55:18.567Z,5.90
2019-01-30T21:57:47.133Z,5.40
2019-01-30T22:00:24.045Z,4.83
2019-01-30T22:02:52.582Z,5.57
2019-01-30T22:05:21.185Z,8.53
2019-01-30T22:08:00.041Z,6.43
2019-01-30T22:10:24.683Z,5.87
2019-01-30T22:12:53.182Z,7.37
2019-01-30T22:15:21.720Z,6.17
2019-01-30T22:17:50.159Z,5.97
2019-01-30T22:20:23.120Z,9.10
2019-01-30T22:22:51.757Z,7.97
2019-01-30T22:25:22.431Z,8.40
2019-01-30T22:27:51.035Z,7.90
2019-01-30T22:30:24.682Z,7.77
2019-01-30T22:32:53.756Z,6.27
2019-01-30T22:35:22.255Z,6.47
2019-01-30T22:37:50.669Z,7.90
2019-01-30T22:40:19.195Z,6.97
2019-01-30T22:42:47.665Z,8.43
2019-01-30T22:45:18.369Z,11.10
2019-01-30T22:47:46.972Z,9.17
2019-01-30T22:50:17.034Z,7.50
2019-01-30T22:52:45.569Z,9.17
2019-01-30T22:55:16.940Z,8.53
2019-01-30T22:57:45.378Z,8.47
2019-01-30T23:00:22.933Z,6.40
2019-01-30T23:02:51.413Z,9.00
2019-01-30T23:05:22.951Z,7.30
2019-01-30T23:07:54.316Z,6.87
2019-01-30T23:10:34.810Z,6.93
2019-01-30T23:13:12.100Z,6.77
2019-01-30T23:15:46.448Z,9.50
2019-01-30T23:18:32.858Z,7.43
2019-01-30T23:21:10.152Z,9.73
2019-01-30T23:23:44.805Z,8.00
2019-01-30T23:26:19.184Z,8.33
2019-01-30T23:29:19.152Z,8.27
2019-01-30T23:32:04.786Z,5.53
2019-01-30T23:34:48.320Z,4.70
2019-01-30T23:37:34.384Z,11.50
2019-01-30T23:40:25.396Z,10.53
2019-01-30T23:42:59.779Z,2.87
2019-01-30T23:45:58.320Z,7.80
2019-01-30T23:48:47.560Z,8.57
2019-01-30T23:51:44.562Z,8.43
2019-01-30T23:54:36.489Z,6.83
2019-01-30T23:57:22.607Z,8.67
